Uni-assure — 3FHV9 — position and weather

sailwx.info

Track history (hours):
 
Tides and Currents Weather Stations Pressure Air Temp Water Temp Dewpoint Dewpoint Depression Visibility Wind Speed Wind Dir Waves Ship Positions

Uni-assure

Last reported at 2018-Jul-14 06:20 UTC. Time now 2018-Jul-15 19:13 UTC.
Position N 37°36' E 023°58'.

Length 165 m; draft 7.2 m.

Type: Ship (hazmat cat D). MMSI: 357398000.

Date/timePositionNaut miles runAvg speedWind from/ knotsBaromVisibWave heightAir tempDewpointWater temp
2018-Jul-14 06:20N 37°36' E 023°58'515.2
2018-Jul-14 05:59N 37°38' E 023°51'714.8
2018-Jul-14 05:30N 37°40' E 023°43'714.2
2018-Jul-14 05:00N 37°46' E 023°39'612.5
2018-Jul-14 04:30N 37°52' E 023°37'5 9.8
2018-Jul-14 04:00N 37°57' E 023°36'1 1.2
2018-Jul-14 03:30N 37°57' E 023°35'0 0.0
2018-Jul-14 03:00N 37°57' E 023°35'0 0.0
2018-Jul-14 02:30N 37°57' E 023°35'0 0.1
2018-Jul-14 02:00N 37°57' E 023°35'0 0.0
2018-Jul-14 01:30N 37°57' E 023°35'0 0.0
2018-Jul-14 01:00N 37°57' E 023°35'0 0.0
2018-Jul-14 00:30N 37°57' E 023°35'0 0.0
2018-Jul-14 00:00N 37°57' E 023°35'0 0.0
2018-Jul-13 23:30N 37°57' E 023°35'0 0.0
2018-Jul-13 23:00N 37°57' E 023°35'0 0.0
2018-Jul-13 22:30N 37°57' E 023°35'0 0.0
2018-Jul-13 22:00N 37°57' E 023°35'0 0.0
2018-Jul-13 21:30N 37°57' E 023°35'0 0.0
2018-Jul-13 20:54N 37°57' E 023°35'0 0.0
2018-Jul-13 20:30N 37°57' E 023°35'0 0.0
2018-Jul-13 20:00N 37°57' E 023°35'0 0.0
2018-Jul-13 19:30N 37°57' E 023°35'0 0.0
2018-Jul-13 19:00N 37°57' E 023°35'0 0.0
2018-Jul-13 18:30N 37°57' E 023°35'0 0.0
2018-Jul-13 18:00N 37°57' E 023°35'0 0.0
2018-Jul-13 17:30N 37°57' E 023°35'0 0.0
2018-Jul-13 17:00N 37°57' E 023°35'0 0.0
2018-Jul-13 16:30N 37°57' E 023°35'0 0.0
2018-Jul-13 16:00N 37°57' E 023°35'0 0.0
2018-Jul-13 15:30N 37°57' E 023°35'0 0.0
2018-Jul-13 15:00N 37°57' E 023°35'1 0.6
2018-Jul-13 14:00N 37°57' E 023°35'2 4.7
2018-Jul-13 13:30N 37°54' E 023°35'0 0.3
2018-Jul-13 13:00N 37°54' E 023°35'0 0.2
2018-Jul-13 12:30N 37°54' E 023°35'0 0.3
2018-Jul-13 12:00N 37°54' E 023°35'1 1.6
2018-Jul-13 11:31N 37°53' E 023°34'3 6.4
2018-Jul-13 11:00N 37°51' E 023°31'0 0.1
2018-Jul-13 10:30N 37°51' E 023°31'0 0.0
2018-Jul-13 10:00N 37°51' E 023°31'0 0.0
2018-Jul-13 09:30N 37°51' E 023°31'0 0.0
2018-Jul-13 09:00N 37°51' E 023°31'0 0.0
2018-Jul-13 08:30N 37°51' E 023°31'0 0.0
2018-Jul-13 08:00N 37°51' E 023°31'0 0.0
2018-Jul-13 07:30N 37°51' E 023°31'0 0.0
2018-Jul-13 07:00N 37°51' E 023°31'0 0.0
2018-Jul-13 06:30N 37°51' E 023°31'0 0.0
2018-Jul-13 06:00N 37°51' E 023°31'0 0.0
2018-Jul-13 05:30N 37°51' E 023°31'0 0.0
2018-Jul-13 05:00N 37°51' E 023°31'0 0.0
2018-Jul-13 04:30N 37°51' E 023°31'0 0.0
2018-Jul-13 04:00N 37°51' E 023°31'0 0.0
2018-Jul-13 03:30N 37°51' E 023°31'0 0.0
2018-Jul-13 03:00N 37°51' E 023°31'0 0.0
2018-Jul-13 02:30N 37°51' E 023°31'0 0.0
2018-Jul-13 02:00N 37°51' E 023°31'0 0.0
2018-Jul-13 01:30N 37°51' E 023°31'0 0.0
2018-Jul-13 01:00N 37°51' E 023°31'0 0.1
2018-Jul-13 00:30N 37°51' E 023°31'0 0.0
2018-Jul-13 00:00N 37°51' E 023°31'0 0.2
2018-Jul-12 23:30N 37°51' E 023°31'0 0.0
2018-Jul-12 23:00N 37°51' E 023°31'0 0.0
2018-Jul-12 22:30N 37°51' E 023°31'0 0.0
2018-Jul-12 22:00N 37°51' E 023°31'0 0.0
2018-Jul-12 21:30N 37°51' E 023°31'0 0.1
2018-Jul-12 21:00N 37°51' E 023°31'0 0.1
2018-Jul-12 20:30N 37°51' E 023°31'0 0.1
2018-Jul-12 20:00N 37°51' E 023°31'0 0.0
2018-Jul-12 19:30N 37°51' E 023°31'0 0.0
2018-Jul-12 19:00N 37°51' E 023°31'0 0.0
2018-Jul-12 18:30N 37°51' E 023°31'0 0.0
2018-Jul-12 18:00N 37°51' E 023°31'0 0.0
2018-Jul-12 17:30N 37°51' E 023°31'0 0.0
2018-Jul-12 17:00N 37°51' E 023°31'0 0.0
2018-Jul-12 16:30N 37°51' E 023°31'0 0.0
2018-Jul-12 16:00N 37°51' E 023°31'0 0.0
2018-Jul-12 15:27N 37°51' E 023°31'0 0.0
2018-Jul-12 15:00N 37°51' E 023°31'0 0.1
2018-Jul-12 14:30N 37°51' E 023°31'0 0.1
2018-Jul-12 14:00N 37°51' E 023°31'0 0.1
2018-Jul-12 13:30N 37°51' E 023°31'0 0.0
2018-Jul-12 13:00N 37°51' E 023°31'0 0.0
2018-Jul-12 12:30N 37°51' E 023°31'0 0.0
2018-Jul-12 12:00N 37°51' E 023°31'0 0.0
2018-Jul-12 11:27N 37°51' E 023°31'0 0.0
2018-Jul-12 11:00N 37°51' E 023°31'0 0.0
2018-Jul-12 10:30N 37°51' E 023°31'0 0.0
2018-Jul-12 10:00N 37°51' E 023°31'0 0.0
2018-Jul-12 09:30N 37°51' E 023°31'0 0.0
2018-Jul-12 09:00N 37°51' E 023°31'0 0.0
2018-Jul-12 08:30N 37°51' E 023°31'0 0.0
2018-Jul-12 08:00N 37°51' E 023°31'0 0.0
2018-Jul-12 07:30N 37°51' E 023°31'0 0.0
2018-Jul-12 07:00N 37°51' E 023°31'0 0.1
2018-Jul-12 06:30N 37°51' E 023°31'0 0.0
2018-Jul-12 06:00N 37°51' E 023°31'0 0.1
2018-Jul-12 05:30N 37°51' E 023°31'0 0.0
2018-Jul-12 05:00N 37°51' E 023°31'0 0.0
2018-Jul-12 04:30N 37°51' E 023°31'0 0.0
2018-Jul-12 04:00N 37°51' E 023°31'0 0.0
2018-Jul-12 03:30N 37°51' E 023°31'0 0.0
2018-Jul-12 03:00N 37°51' E 023°31'0 0.0
2018-Jul-12 02:30N 37°51' E 023°31'0 0.0
2018-Jul-12 02:00N 37°51' E 023°31'0 0.0
2018-Jul-12 01:30N 37°51' E 023°31'0 0.0
2018-Jul-12 01:00N 37°51' E 023°31'0 0.0
2018-Jul-12 00:30N 37°51' E 023°31'0 0.0
2018-Jul-12 00:00N 37°51' E 023°31'0 0.0
2018-Jul-11 23:30N 37°51' E 023°31'0 0.1
2018-Jul-11 23:00N 37°51' E 023°31'0 0.1
2018-Jul-11 22:30N 37°51' E 023°31'0 0.0
2018-Jul-11 22:00N 37°51' E 023°31'0 0.0
2018-Jul-11 21:30N 37°51' E 023°31'0 0.1
2018-Jul-11 21:00N 37°51' E 023°31'0 0.1
2018-Jul-11 20:30N 37°51' E 023°31'0 0.1
2018-Jul-11 20:00N 37°51' E 023°31'0 0.0
2018-Jul-11 19:30N 37°51' E 023°31'0 0.1
2018-Jul-11 19:00N 37°51' E 023°31'0 0.0
2018-Jul-11 18:30N 37°51' E 023°31'0 0.1
2018-Jul-11 18:00N 37°51' E 023°31'0 0.0
2018-Jul-11 17:30N 37°51' E 023°31'0 0.0
2018-Jul-11 17:00N 37°51' E 023°31'0 0.0
2018-Jul-11 16:30N 37°51' E 023°31'0 0.0
2018-Jul-11 15:57N 37°51' E 023°31'0 0.0
2018-Jul-11 15:30N 37°51' E 023°31'0 0.0
2018-Jul-11 15:00N 37°51' E 023°31'0 0.0
2018-Jul-11 14:30N 37°51' E 023°31'0 0.0
2018-Jul-11 14:00N 37°51' E 023°31'0 0.1
2018-Jul-11 13:30N 37°51' E 023°31'0 0.1
2018-Jul-11 13:00N 37°51' E 023°31'0 0.1
2018-Jul-11 12:30N 37°51' E 023°31'0 0.0
2018-Jul-11 12:00N 37°51' E 023°31'0 0.0
2018-Jul-11 11:30N 37°51' E 023°31'0 0.0
2018-Jul-11 11:00N 37°51' E 023°31'0 0.0
2018-Jul-11 10:30N 37°51' E 023°31'0 0.0
2018-Jul-11 10:00N 37°51' E 023°31'0 0.0
2018-Jul-11 09:30N 37°51' E 023°31'0 0.0
2018-Jul-11 09:00N 37°51' E 023°31'0 0.0
2018-Jul-11 08:30N 37°51' E 023°31'0 0.0
2018-Jul-11 07:27N 37°51' E 023°31'0 0.0
2018-Jul-11 07:00N 37°51' E 023°31'0 0.1
2018-Jul-11 06:30N 37°51' E 023°31'0 0.1
2018-Jul-11 06:00N 37°51' E 023°31'0 0.1
2018-Jul-11 05:30N 37°51' E 023°31'0 0.0
2018-Jul-11 05:00N 37°51' E 023°31'0 0.0
2018-Jul-11 04:30N 37°51' E 023°31'0 0.0
2018-Jul-11 04:00N 37°51' E 023°31'0 0.0
2018-Jul-11 03:30N 37°51' E 023°31'0 0.0
2018-Jul-11 03:00N 37°51' E 023°31'0 0.1
2018-Jul-11 02:30N 37°51' E 023°31'0 0.0
2018-Jul-11 02:00N 37°51' E 023°31'0 0.0
2018-Jul-11 01:30N 37°51' E 023°31'0 0.0
2018-Jul-11 01:00N 37°51' E 023°31'0 0.0
2018-Jul-11 00:30N 37°51' E 023°31'0 0.0
2018-Jul-11 00:00N 37°51' E 023°31'0 0.0
2018-Jul-10 23:30N 37°51' E 023°31'0 0.0
2018-Jul-10 23:00N 37°51' E 023°31'0 0.0
2018-Jul-10 22:30N 37°51' E 023°31'0 0.0
2018-Jul-10 22:00N 37°51' E 023°31'0 0.1
2018-Jul-10 21:30N 37°51' E 023°31'0 0.2
2018-Jul-10 21:00N 37°51' E 023°31'0 0.1
2018-Jul-10 20:30N 37°51' E 023°31'0 0.0
2018-Jul-10 20:00N 37°51' E 023°31'0 0.0
2018-Jul-10 19:30N 37°51' E 023°31'0 0.0
2018-Jul-10 19:00N 37°51' E 023°31'0 0.0
2018-Jul-10 18:30N 37°51' E 023°31'0 0.0
2018-Jul-10 18:00N 37°51' E 023°31'0 0.3
2018-Jul-10 17:31N 37°51' E 023°31'3 5.9
2018-Jul-10 17:00N 37°51' E 023°35'5 9.8
2018-Jul-10 16:30N 37°49' E 023°40'612.4
2018-Jul-10 16:00N 37°43' E 023°44'612.1
2018-Jul-10 15:30N 37°39' E 023°49'813.9
2018-Jul-10 14:55N 37°36' E 023°59'1614.2
2018-Jul-10 13:48N 37°43' E 024°17'815.7
2018-Jul-10 13:17N 37°48' E 024°25'5715.7
2018-Jul-10 09:38N 38°37' E 025°03'28110.4
2018-Jul-09 06:40N 42°46' E 027°56'315.5
2018-Jul-09 06:30N 42°48' E 027°57'815.3
2018-Jul-09 06:00N 42°56' E 027°58'714.9
2018-Jul-09 05:30N 43°03' E 027°58'713.5
2018-Jul-09 05:00N 43°10' E 027°59'0 0.0
2018-Jul-08 16:25N 43°11' E 027°59'410.0
2018-Jul-08 15:59N 43°06' E 028°00'3 6.1
2018-Jul-08 15:30N 43°05' E 027°57'0 0.0
2018-Jul-08 14:25N 43°05' E 027°57'0 0.1
2018-Jul-08 14:00N 43°05' E 027°57'0 0.1
2018-Jul-08 13:30N 43°05' E 027°57'0 0.0
2018-Jul-08 12:45N 43°05' E 027°57'0 0.1
2018-Jul-08 12:27N 43°05' E 027°57'0 0.1
2018-Jul-08 11:57N 43°05' E 027°57'0 0.0
2018-Jul-08 11:27N 43°05' E 027°57'0 0.0
2018-Jul-08 11:00N 43°05' E 027°57'0 0.0
2018-Jul-08 08:57N 43°05' E 027°57'0 0.0
2018-Jul-08 08:30N 43°05' E 027°57'0 0.0
2018-Jul-08 07:36N 43°05' E 027°57'0 0.0
2018-Jul-08 07:30N 43°05' E 027°57'0 0.0
2018-Jul-08 06:57N 43°05' E 027°57'0 0.0
2018-Jul-08 06:21N 43°05' E 027°57'0 0.1
2018-Jul-08 06:00N 43°05' E 027°57'0 0.0
2018-Jul-08 05:30N 43°05' E 027°57'0 0.0
2018-Jul-08 04:40N 43°05' E 027°57'0 0.0
2018-Jul-08 04:30N 43°05' E 027°57'0 0.0
2018-Jul-08 03:54N 43°05' E 027°57'0 0.0
2018-Jul-08 03:24N 43°05' E 027°57'0 0.0
2018-Jul-07 22:18N 43°05' E 027°57'0 0.0
2018-Jul-07 21:57N 43°05' E 027°57'0 0.0
2018-Jul-07 21:30N 43°05' E 027°57'0 0.0
2018-Jul-07 21:00N 43°05' E 027°57'0 0.0
2018-Jul-07 20:27N 43°05' E 027°57'0 0.1
2018-Jul-07 19:33N 43°05' E 027°57'0 0.1
2018-Jul-07 19:27N 43°05' E 027°57'0 0.1
2018-Jul-07 18:51N 43°05' E 027°57'0 0.0
2018-Jul-07 18:30N 43°05' E 027°57'0 0.0
2018-Jul-07 17:43N 43°05' E 027°57'0 1.3
2018-Jul-07 17:30N 43°05' E 027°57'1 2.2
2018-Jul-07 17:00N 43°06' E 027°57'3 5.8
2018-Jul-07 16:30N 43°09' E 027°59'7 9.3
2018-Jul-07 15:48N 43°13' E 028°06'412.7
2018-Jul-07 15:29N 43°15' E 028°11'1213.1
2018-Jul-07 14:34N 43°19' E 028°26'112.8
2018-Jul-07 14:30N 43°19' E 028°27'612.4
2018-Jul-07 14:00N 43°20' E 028°35'510.8
2018-Jul-07 13:30N 43°21' E 028°43'510.5
2018-Jul-07 13:01N 43°21' E 028°50'1215.4
2018-Jul-07 12:12N 43°23' E 029°07'315.4
2018-Jul-07 12:00N 43°24' E 029°11'815.7
2018-Jul-07 11:30N 43°25' E 029°22'815.7
2018-Jul-07 11:00N 43°26' E 029°32'915.7
2018-Jul-07 10:27N 43°27' E 029°44'715.5
2018-Jul-07 10:00N 43°28' E 029°54'815.5
2018-Jul-07 09:28N 43°29' E 030°05'815.4
2018-Jul-07 08:58N 43°30' E 030°16'815.3
2018-Jul-07 08:28N 43°32' E 030°26'715.4
2018-Jul-07 08:00N 43°33' E 030°36'9415.6
2018-Jul-07 01:59N 43°46' E 032°44'815.7
2018-Jul-07 01:30N 43°47' E 032°55'815.7
2018-Jul-07 01:00N 43°48' E 033°05'1315.8
2018-Jul-07 00:13N 43°50' E 033°22'315.8
2018-Jul-07 00:00N 43°51' E 033°27'1915.3
2018-Jul-06 22:46N 43°53' E 033°53'414.9
2018-Jul-06 22:30N 43°54' E 033°58'915.0
2018-Jul-06 21:53N 43°55' E 034°11'615.2
2018-Jul-06 21:31N 43°56' E 034°19'815.4
2018-Jul-06 21:00N 43°57' E 034°30'815.4
2018-Jul-06 20:30N 43°58' E 034°40'10415.1
2018-Jul-06 13:38N 44°18' E 037°02'215.1
2018-Jul-06 13:28N 44°19' E 037°05'715.3
2018-Jul-06 13:00N 44°22' E 037°14'815.4
2018-Jul-06 12:30N 44°26' E 037°24'815.1
2018-Jul-06 12:00N 44°29' E 037°33'715.0
2018-Jul-06 11:30N 44°32' E 037°42'714.1
2018-Jul-06 11:00N 44°38' E 037°49'4 7.8
2018-Jul-06 10:30N 44°41' E 037°49'2 3.9
2018-Jul-06 10:00N 44°43' E 037°49'0 0.1
2018-Jul-06 09:30N 44°43' E 037°49'0 0.0
2018-Jul-06 09:00N 44°43' E 037°49'0 0.0
2018-Jul-06 08:30N 44°43' E 037°49'0 0.0
2018-Jul-06 08:00N 44°43' E 037°49'0 0.0
2018-Jul-06 07:30N 44°43' E 037°49'0 0.0
2018-Jul-06 07:00N 44°43' E 037°49'0 0.0
2018-Jul-06 06:29N 44°43' E 037°49'0 0.0
2018-Jul-06 06:00N 44°43' E 037°49'0 0.0
2018-Jul-06 05:30N 44°43' E 037°49'0 0.0
2018-Jul-06 05:00N 44°43' E 037°49'0 0.0
2018-Jul-06 04:30N 44°43' E 037°49'0 0.0
2018-Jul-06 04:00N 44°43' E 037°49'0 0.0
2018-Jul-06 03:30N 44°43' E 037°49'0 0.0
2018-Jul-06 03:00N 44°43' E 037°49'0 0.0
2018-Jul-06 02:30N 44°43' E 037°49'0 0.0
2018-Jul-06 02:00N 44°43' E 037°49'0 0.0
2018-Jul-06 01:30N 44°43' E 037°49'0 0.0
2018-Jul-06 01:00N 44°43' E 037°49'0 0.0
2018-Jul-06 00:30N 44°43' E 037°49'0 0.0
2018-Jul-06 00:00N 44°43' E 037°49'0 0.0
2018-Jul-05 23:30N 44°43' E 037°49'0 0.0
2018-Jul-05 22:59N 44°43' E 037°49'0 0.0
2018-Jul-05 22:30N 44°43' E 037°49'0 0.0
2018-Jul-05 22:00N 44°43' E 037°49'0 0.0
2018-Jul-05 21:30N 44°43' E 037°49'0 0.0
2018-Jul-05 20:58N 44°43' E 037°49'0 0.0
2018-Jul-05 20:30N 44°43' E 037°49'0 0.0
2018-Jul-05 20:01N 44°43' E 037°49'0 0.0
2018-Jul-05 19:30N 44°43' E 037°49'0 0.0
2018-Jul-05 19:00N 44°43' E 037°49'0 0.0
2018-Jul-05 18:30N 44°43' E 037°49'0 0.0
2018-Jul-05 18:00N 44°43' E 037°49'0 0.0
2018-Jul-05 17:30N 44°43' E 037°49'0 0.0
2018-Jul-05 17:00N 44°43' E 037°49'0 0.0
2018-Jul-05 16:30N 44°43' E 037°49'0 0.0
2018-Jul-05 16:00N 44°43' E 037°49'0 0.0
2018-Jul-05 15:31N 44°43' E 037°49'0 0.0
2018-Jul-05 15:01N 44°43' E 037°49'0 0.0
2018-Jul-05 14:30N 44°43' E 037°49'0 0.0
2018-Jul-05 13:30N 44°43' E 037°49'0 0.0
2018-Jul-05 13:00N 44°43' E 037°49'0 0.0
2018-Jul-05 12:31N 44°43' E 037°49'0 0.0
2018-Jul-05 12:00N 44°43' E 037°49'0 0.0
2018-Jul-05 11:30N 44°43' E 037°49'0 0.0
2018-Jul-05 11:00N 44°43' E 037°49'0 0.0
2018-Jul-05 10:30N 44°43' E 037°49'0 0.0
2018-Jul-05 10:00N 44°43' E 037°49'0 0.0
2018-Jul-05 09:30N 44°43' E 037°49'0 0.0
2018-Jul-05 09:01N 44°43' E 037°49'0 0.0
2018-Jul-05 08:30N 44°43' E 037°49'0 0.0
2018-Jul-05 07:59N 44°43' E 037°49'0 0.0
2018-Jul-05 07:30N 44°43' E 037°49'0 0.0
2018-Jul-05 07:01N 44°43' E 037°49'0 0.0
2018-Jul-05 06:31N 44°43' E 037°49'0 0.0
2018-Jul-05 06:00N 44°43' E 037°49'0 0.0
2018-Jul-05 05:30N 44°43' E 037°49'0 0.0
2018-Jul-05 04:58N 44°43' E 037°49'0 0.0
2018-Jul-05 04:31N 44°43' E 037°49'0 0.0
2018-Jul-05 03:59N 44°43' E 037°49'0 0.0
2018-Jul-05 03:30N 44°43' E 037°49'0 0.0
2018-Jul-05 03:00N 44°43' E 037°49'0 0.0
2018-Jul-05 02:30N 44°43' E 037°49'0 0.0
2018-Jul-05 02:00N 44°43' E 037°49'0 0.0
2018-Jul-05 01:30N 44°43' E 037°49'0 0.0
2018-Jul-05 01:00N 44°43' E 037°49'0 0.0
2018-Jul-05 00:30N 44°43' E 037°49'0 0.0
2018-Jul-05 00:00N 44°43' E 037°49'0 0.0
2018-Jul-04 23:30N 44°43' E 037°49'2 4.3
2018-Jul-04 23:00N 44°41' E 037°50'4 8.3
2018-Jul-04 22:30N 44°37' E 037°52'3 6.4
2018-Jul-04 22:00N 44°34' E 037°52'4 8.0
2018-Jul-04 21:30N 44°30' E 037°52'816.4
2018-Jul-04 21:00N 44°22' E 037°53'5 9.7
2018-Jul-04 20:31N 44°18' E 037°55'611.9
2018-Jul-04 20:00N 44°12' E 037°58'0 0.2
2018-Jul-04 19:31N 44°12' E 037°58'1 1.1
2018-Jul-04 19:00N 44°12' E 037°58'1 1.5
2018-Jul-04 18:30N 44°13' E 037°58'1 1.2
2018-Jul-04 18:00N 44°14' E 037°58'5 9.3
2018-Jul-04 17:30N 44°09' E 037°58'713.7
2018-Jul-04 17:00N 44°02' E 037°58'1013.8
2018-Jul-04 16:18N 43°56' E 038°08'414.2
2018-Jul-04 16:00N 43°54' E 038°13'1115.0
2018-Jul-04 15:16N 43°47' E 038°26'515.5
2018-Jul-04 14:56N 43°44' E 038°32'715.5
2018-Jul-04 14:30N 43°41' E 038°39'815.3
2018-Jul-04 14:00N 43°36' E 038°48'815.3
2018-Jul-04 13:30N 43°32' E 038°56'815.4
2018-Jul-04 13:00N 43°27' E 039°05'815.4
2018-Jul-04 12:30N 43°23' E 039°14'815.6
2018-Jul-04 12:00N 43°19' E 039°23'  
Track history (hours):
 
Tides and Currents Weather Stations Pressure Air Temp Water Temp Dewpoint Dewpoint Depression Visibility Wind Speed Wind Dir Waves Ship Positions

Uni-assure

Last reported at 2018-Jul-14 06:20 UTC. Time now 2018-Jul-15 19:13 UTC.
Position N 37°36' E 023°58'.

Length 165 m; draft 7.2 m.

Type: Ship (hazmat cat D). MMSI: 357398000.

Date/timePositionNaut miles runAvg speedWind from/ knotsBaromVisibWave heightAir tempDewpointWater temp
2018-Jul-14 06:20N 37°36' E 023°58'515.2
2018-Jul-14 05:59N 37°38' E 023°51'714.8
2018-Jul-14 05:30N 37°40' E 023°43'714.2
2018-Jul-14 05:00N 37°46' E 023°39'612.5
2018-Jul-14 04:30N 37°52' E 023°37'5 9.8
2018-Jul-14 04:00N 37°57' E 023°36'1 1.2
2018-Jul-14 03:30N 37°57' E 023°35'0 0.0
2018-Jul-14 03:00N 37°57' E 023°35'0 0.0
2018-Jul-14 02:30N 37°57' E 023°35'0 0.1
2018-Jul-14 02:00N 37°57' E 023°35'0 0.0
2018-Jul-14 01:30N 37°57' E 023°35'0 0.0
2018-Jul-14 01:00N 37°57' E 023°35'0 0.0
2018-Jul-14 00:30N 37°57' E 023°35'0 0.0
2018-Jul-14 00:00N 37°57' E 023°35'0 0.0
2018-Jul-13 23:30N 37°57' E 023°35'0 0.0
2018-Jul-13 23:00N 37°57' E 023°35'0 0.0
2018-Jul-13 22:30N 37°57' E 023°35'0 0.0
2018-Jul-13 22:00N 37°57' E 023°35'0 0.0
2018-Jul-13 21:30N 37°57' E 023°35'0 0.0
2018-Jul-13 20:54N 37°57' E 023°35'0 0.0
2018-Jul-13 20:30N 37°57' E 023°35'0 0.0
2018-Jul-13 20:00N 37°57' E 023°35'0 0.0
2018-Jul-13 19:30N 37°57' E 023°35'0 0.0
2018-Jul-13 19:00N 37°57' E 023°35'0 0.0
2018-Jul-13 18:30N 37°57' E 023°35'0 0.0
2018-Jul-13 18:00N 37°57' E 023°35'0 0.0
2018-Jul-13 17:30N 37°57' E 023°35'0 0.0
2018-Jul-13 17:00N 37°57' E 023°35'0 0.0
2018-Jul-13 16:30N 37°57' E 023°35'0 0.0
2018-Jul-13 16:00N 37°57' E 023°35'0 0.0
2018-Jul-13 15:30N 37°57' E 023°35'0 0.0
2018-Jul-13 15:00N 37°57' E 023°35'1 0.6
2018-Jul-13 14:00N 37°57' E 023°35'2 4.7
2018-Jul-13 13:30N 37°54' E 023°35'0 0.3
2018-Jul-13 13:00N 37°54' E 023°35'0 0.2
2018-Jul-13 12:30N 37°54' E 023°35'0 0.3
2018-Jul-13 12:00N 37°54' E 023°35'1 1.6
2018-Jul-13 11:31N 37°53' E 023°34'3 6.4
2018-Jul-13 11:00N 37°51' E 023°31'0 0.1
2018-Jul-13 10:30N 37°51' E 023°31'0 0.0
2018-Jul-13 10:00N 37°51' E 023°31'0 0.0
2018-Jul-13 09:30N 37°51' E 023°31'0 0.0
2018-Jul-13 09:00N 37°51' E 023°31'0 0.0
2018-Jul-13 08:30N 37°51' E 023°31'0 0.0
2018-Jul-13 08:00N 37°51' E 023°31'0 0.0
2018-Jul-13 07:30N 37°51' E 023°31'0 0.0
2018-Jul-13 07:00N 37°51' E 023°31'0 0.0
2018-Jul-13 06:30N 37°51' E 023°31'0 0.0
2018-Jul-13 06:00N 37°51' E 023°31'0 0.0
2018-Jul-13 05:30N 37°51' E 023°31'0 0.0
2018-Jul-13 05:00N 37°51' E 023°31'0 0.0
2018-Jul-13 04:30N 37°51' E 023°31'0 0.0
2018-Jul-13 04:00N 37°51' E 023°31'0 0.0
2018-Jul-13 03:30N 37°51' E 023°31'0 0.0
2018-Jul-13 03:00N 37°51' E 023°31'0 0.0
2018-Jul-13 02:30N 37°51' E 023°31'0 0.0
2018-Jul-13 02:00N 37°51' E 023°31'0 0.0
2018-Jul-13 01:30N 37°51' E 023°31'0 0.0
2018-Jul-13 01:00N 37°51' E 023°31'0 0.1
2018-Jul-13 00:30N 37°51' E 023°31'0 0.0
2018-Jul-13 00:00N 37°51' E 023°31'0 0.2
2018-Jul-12 23:30N 37°51' E 023°31'0 0.0
2018-Jul-12 23:00N 37°51' E 023°31'0 0.0
2018-Jul-12 22:30N 37°51' E 023°31'0 0.0
2018-Jul-12 22:00N 37°51' E 023°31'0 0.0
2018-Jul-12 21:30N 37°51' E 023°31'0 0.1
2018-Jul-12 21:00N 37°51' E 023°31'0 0.1
2018-Jul-12 20:30N 37°51' E 023°31'0 0.1
2018-Jul-12 20:00N 37°51' E 023°31'0 0.0
2018-Jul-12 19:30N 37°51' E 023°31'0 0.0
2018-Jul-12 19:00N 37°51' E 023°31'0 0.0
2018-Jul-12 18:30N 37°51' E 023°31'0 0.0
2018-Jul-12 18:00N 37°51' E 023°31'0 0.0
2018-Jul-12 17:30N 37°51' E 023°31'0 0.0
2018-Jul-12 17:00N 37°51' E 023°31'0 0.0
2018-Jul-12 16:30N 37°51' E 023°31'0 0.0
2018-Jul-12 16:00N 37°51' E 023°31'0 0.0
2018-Jul-12 15:27N 37°51' E 023°31'0 0.0
2018-Jul-12 15:00N 37°51' E 023°31'0 0.1
2018-Jul-12 14:30N 37°51' E 023°31'0 0.1
2018-Jul-12 14:00N 37°51' E 023°31'0 0.1
2018-Jul-12 13:30N 37°51' E 023°31'0 0.0
2018-Jul-12 13:00N 37°51' E 023°31'0 0.0
2018-Jul-12 12:30N 37°51' E 023°31'0 0.0
2018-Jul-12 12:00N 37°51' E 023°31'0 0.0
2018-Jul-12 11:27N 37°51' E 023°31'0 0.0
2018-Jul-12 11:00N 37°51' E 023°31'0 0.0
2018-Jul-12 10:30N 37°51' E 023°31'0 0.0
2018-Jul-12 10:00N 37°51' E 023°31'0 0.0
2018-Jul-12 09:30N 37°51' E 023°31'0 0.0
2018-Jul-12 09:00N 37°51' E 023°31'0 0.0
2018-Jul-12 08:30N 37°51' E 023°31'0 0.0
2018-Jul-12 08:00N 37°51' E 023°31'0 0.0
2018-Jul-12 07:30N 37°51' E 023°31'0 0.0
2018-Jul-12 07:00N 37°51' E 023°31'0 0.1
2018-Jul-12 06:30N 37°51' E 023°31'0 0.0
2018-Jul-12 06:00N 37°51' E 023°31'0 0.1
2018-Jul-12 05:30N 37°51' E 023°31'0 0.0
2018-Jul-12 05:00N 37°51' E 023°31'0 0.0
2018-Jul-12 04:30N 37°51' E 023°31'0 0.0
2018-Jul-12 04:00N 37°51' E 023°31'0 0.0
2018-Jul-12 03:30N 37°51' E 023°31'0 0.0
2018-Jul-12 03:00N 37°51' E 023°31'0 0.0
2018-Jul-12 02:30N 37°51' E 023°31'0 0.0
2018-Jul-12 02:00N 37°51' E 023°31'0 0.0
2018-Jul-12 01:30N 37°51' E 023°31'0 0.0
2018-Jul-12 01:00N 37°51' E 023°31'0 0.0
2018-Jul-12 00:30N 37°51' E 023°31'0 0.0
2018-Jul-12 00:00N 37°51' E 023°31'0 0.0
2018-Jul-11 23:30N 37°51' E 023°31'0 0.1
2018-Jul-11 23:00N 37°51' E 023°31'0 0.1
2018-Jul-11 22:30N 37°51' E 023°31'0 0.0
2018-Jul-11 22:00N 37°51' E 023°31'0 0.0
2018-Jul-11 21:30N 37°51' E 023°31'0 0.1
2018-Jul-11 21:00N 37°51' E 023°31'0 0.1
2018-Jul-11 20:30N 37°51' E 023°31'0 0.1
2018-Jul-11 20:00N 37°51' E 023°31'0 0.0
2018-Jul-11 19:30N 37°51' E 023°31'0 0.1
2018-Jul-11 19:00N 37°51' E 023°31'0 0.0
2018-Jul-11 18:30N 37°51' E 023°31'0 0.1
2018-Jul-11 18:00N 37°51' E 023°31'0 0.0
2018-Jul-11 17:30N 37°51' E 023°31'0 0.0
2018-Jul-11 17:00N 37°51' E 023°31'0 0.0
2018-Jul-11 16:30N 37°51' E 023°31'0 0.0
2018-Jul-11 15:57N 37°51' E 023°31'0 0.0
2018-Jul-11 15:30N 37°51' E 023°31'0 0.0
2018-Jul-11 15:00N 37°51' E 023°31'0 0.0
2018-Jul-11 14:30N 37°51' E 023°31'0 0.0
2018-Jul-11 14:00N 37°51' E 023°31'0 0.1
2018-Jul-11 13:30N 37°51' E 023°31'0 0.1
2018-Jul-11 13:00N 37°51' E 023°31'0 0.1
2018-Jul-11 12:30N 37°51' E 023°31'0 0.0
2018-Jul-11 12:00N 37°51' E 023°31'0 0.0
2018-Jul-11 11:30N 37°51' E 023°31'0 0.0
2018-Jul-11 11:00N 37°51' E 023°31'0 0.0
2018-Jul-11 10:30N 37°51' E 023°31'0 0.0
2018-Jul-11 10:00N 37°51' E 023°31'0 0.0
2018-Jul-11 09:30N 37°51' E 023°31'0 0.0
2018-Jul-11 09:00N 37°51' E 023°31'0 0.0
2018-Jul-11 08:30N 37°51' E 023°31'0 0.0
2018-Jul-11 07:27N 37°51' E 023°31'0 0.0
2018-Jul-11 07:00N 37°51' E 023°31'0 0.1
2018-Jul-11 06:30N 37°51' E 023°31'0 0.1
2018-Jul-11 06:00N 37°51' E 023°31'0 0.1
2018-Jul-11 05:30N 37°51' E 023°31'0 0.0
2018-Jul-11 05:00N 37°51' E 023°31'0 0.0
2018-Jul-11 04:30N 37°51' E 023°31'0 0.0
2018-Jul-11 04:00N 37°51' E 023°31'0 0.0
2018-Jul-11 03:30N 37°51' E 023°31'0 0.0
2018-Jul-11 03:00N 37°51' E 023°31'0 0.1
2018-Jul-11 02:30N 37°51' E 023°31'0 0.0
2018-Jul-11 02:00N 37°51' E 023°31'0 0.0
2018-Jul-11 01:30N 37°51' E 023°31'0 0.0
2018-Jul-11 01:00N 37°51' E 023°31'0 0.0
2018-Jul-11 00:30N 37°51' E 023°31'0 0.0
2018-Jul-11 00:00N 37°51' E 023°31'0 0.0
2018-Jul-10 23:30N 37°51' E 023°31'0 0.0
2018-Jul-10 23:00N 37°51' E 023°31'0 0.0
2018-Jul-10 22:30N 37°51' E 023°31'0 0.0
2018-Jul-10 22:00N 37°51' E 023°31'0 0.1
2018-Jul-10 21:30N 37°51' E 023°31'0 0.2
2018-Jul-10 21:00N 37°51' E 023°31'0 0.1
2018-Jul-10 20:30N 37°51' E 023°31'0 0.0
2018-Jul-10 20:00N 37°51' E 023°31'0 0.0
2018-Jul-10 19:30N 37°51' E 023°31'0 0.0
2018-Jul-10 19:00N 37°51' E 023°31'0 0.0
2018-Jul-10 18:30N 37°51' E 023°31'0 0.0
2018-Jul-10 18:00N 37°51' E 023°31'0 0.3
2018-Jul-10 17:31N 37°51' E 023°31'3 5.9
2018-Jul-10 17:00N 37°51' E 023°35'5 9.8
2018-Jul-10 16:30N 37°49' E 023°40'612.4
2018-Jul-10 16:00N 37°43' E 023°44'612.1
2018-Jul-10 15:30N 37°39' E 023°49'813.9
2018-Jul-10 14:55N 37°36' E 023°59'1614.2
2018-Jul-10 13:48N 37°43' E 024°17'815.7
2018-Jul-10 13:17N 37°48' E 024°25'5715.7
2018-Jul-10 09:38N 38°37' E 025°03'28110.4
2018-Jul-09 06:40N 42°46' E 027°56'315.5
2018-Jul-09 06:30N 42°48' E 027°57'815.3
2018-Jul-09 06:00N 42°56' E 027°58'714.9
2018-Jul-09 05:30N 43°03' E 027°58'713.5
2018-Jul-09 05:00N 43°10' E 027°59'0 0.0
2018-Jul-08 16:25N 43°11' E 027°59'410.0
2018-Jul-08 15:59N 43°06' E 028°00'3 6.1
2018-Jul-08 15:30N 43°05' E 027°57'0 0.0
2018-Jul-08 14:25N 43°05' E 027°57'0 0.1
2018-Jul-08 14:00N 43°05' E 027°57'0 0.1
2018-Jul-08 13:30N 43°05' E 027°57'0 0.0
2018-Jul-08 12:45N 43°05' E 027°57'0 0.1
2018-Jul-08 12:27N 43°05' E 027°57'0 0.1
2018-Jul-08 11:57N 43°05' E 027°57'0 0.0
2018-Jul-08 11:27N 43°05' E 027°57'0 0.0
2018-Jul-08 11:00N 43°05' E 027°57'0 0.0
2018-Jul-08 08:57N 43°05' E 027°57'0 0.0
2018-Jul-08 08:30N 43°05' E 027°57'0 0.0
2018-Jul-08 07:36N 43°05' E 027°57'0 0.0
2018-Jul-08 07:30N 43°05' E 027°57'0 0.0
2018-Jul-08 06:57N 43°05' E 027°57'0 0.0
2018-Jul-08 06:21N 43°05' E 027°57'0 0.1
2018-Jul-08 06:00N 43°05' E 027°57'0 0.0
2018-Jul-08 05:30N 43°05' E 027°57'0 0.0
2018-Jul-08 04:40N 43°05' E 027°57'0 0.0
2018-Jul-08 04:30N 43°05' E 027°57'0 0.0
2018-Jul-08 03:54N 43°05' E 027°57'0 0.0
2018-Jul-08 03:24N 43°05' E 027°57'0 0.0
2018-Jul-07 22:18N 43°05' E 027°57'0 0.0
2018-Jul-07 21:57N 43°05' E 027°57'0 0.0
2018-Jul-07 21:30N 43°05' E 027°57'0 0.0
2018-Jul-07 21:00N 43°05' E 027°57'0 0.0
2018-Jul-07 20:27N 43°05' E 027°57'0 0.1
2018-Jul-07 19:33N 43°05' E 027°57'0 0.1
2018-Jul-07 19:27N 43°05' E 027°57'0 0.1
2018-Jul-07 18:51N 43°05' E 027°57'0 0.0
2018-Jul-07 18:30N 43°05' E 027°57'0 0.0
2018-Jul-07 17:43N 43°05' E 027°57'0 1.3
2018-Jul-07 17:30N 43°05' E 027°57'1 2.2
2018-Jul-07 17:00N 43°06' E 027°57'3 5.8
2018-Jul-07 16:30N 43°09' E 027°59'7 9.3
2018-Jul-07 15:48N 43°13' E 028°06'412.7
2018-Jul-07 15:29N 43°15' E 028°11'1213.1
2018-Jul-07 14:34N 43°19' E 028°26'112.8
2018-Jul-07 14:30N 43°19' E 028°27'612.4
2018-Jul-07 14:00N 43°20' E 028°35'510.8
2018-Jul-07 13:30N 43°21' E 028°43'510.5
2018-Jul-07 13:01N 43°21' E 028°50'1215.4
2018-Jul-07 12:12N 43°23' E 029°07'315.4
2018-Jul-07 12:00N 43°24' E 029°11'815.7
2018-Jul-07 11:30N 43°25' E 029°22'815.7
2018-Jul-07 11:00N 43°26' E 029°32'915.7
2018-Jul-07 10:27N 43°27' E 029°44'715.5
2018-Jul-07 10:00N 43°28' E 029°54'815.5
2018-Jul-07 09:28N 43°29' E 030°05'815.4
2018-Jul-07 08:58N 43°30' E 030°16'815.3
2018-Jul-07 08:28N 43°32' E 030°26'715.4
2018-Jul-07 08:00N 43°33' E 030°36'9415.6
2018-Jul-07 01:59N 43°46' E 032°44'815.7
2018-Jul-07 01:30N 43°47' E 032°55'815.7
2018-Jul-07 01:00N 43°48' E 033°05'1315.8
2018-Jul-07 00:13N 43°50' E 033°22'315.8
2018-Jul-07 00:00N 43°51' E 033°27'1915.3
2018-Jul-06 22:46N 43°53' E 033°53'414.9
2018-Jul-06 22:30N 43°54' E 033°58'915.0
2018-Jul-06 21:53N 43°55' E 034°11'615.2
2018-Jul-06 21:31N 43°56' E 034°19'815.4
2018-Jul-06 21:00N 43°57' E 034°30'815.4
2018-Jul-06 20:30N 43°58' E 034°40'10415.1
2018-Jul-06 13:38N 44°18' E 037°02'215.1
2018-Jul-06 13:28N 44°19' E 037°05'715.3
2018-Jul-06 13:00N 44°22' E 037°14'815.4
2018-Jul-06 12:30N 44°26' E 037°24'815.1
2018-Jul-06 12:00N 44°29' E 037°33'715.0
2018-Jul-06 11:30N 44°32' E 037°42'714.1
2018-Jul-06 11:00N 44°38' E 037°49'4 7.8
2018-Jul-06 10:30N 44°41' E 037°49'2 3.9
2018-Jul-06 10:00N 44°43' E 037°49'0 0.1
2018-Jul-06 09:30N 44°43' E 037°49'0 0.0
2018-Jul-06 09:00N 44°43' E 037°49'0 0.0
2018-Jul-06 08:30N 44°43' E 037°49'0 0.0
2018-Jul-06 08:00N 44°43' E 037°49'0 0.0
2018-Jul-06 07:30N 44°43' E 037°49'0 0.0
2018-Jul-06 07:00N 44°43' E 037°49'0 0.0
2018-Jul-06 06:29N 44°43' E 037°49'0 0.0
2018-Jul-06 06:00N 44°43' E 037°49'0 0.0
2018-Jul-06 05:30N 44°43' E 037°49'0 0.0
2018-Jul-06 05:00N 44°43' E 037°49'0 0.0
2018-Jul-06 04:30N 44°43' E 037°49'0 0.0
2018-Jul-06 04:00N 44°43' E 037°49'0 0.0
2018-Jul-06 03:30N 44°43' E 037°49'0 0.0
2018-Jul-06 03:00N 44°43' E 037°49'0 0.0
2018-Jul-06 02:30N 44°43' E 037°49'0 0.0
2018-Jul-06 02:00N 44°43' E 037°49'0 0.0
2018-Jul-06 01:30N 44°43' E 037°49'0 0.0
2018-Jul-06 01:00N 44°43' E 037°49'0 0.0
2018-Jul-06 00:30N 44°43' E 037°49'0 0.0
2018-Jul-06 00:00N 44°43' E 037°49'0 0.0
2018-Jul-05 23:30N 44°43' E 037°49'0 0.0
2018-Jul-05 22:59N 44°43' E 037°49'0 0.0
2018-Jul-05 22:30N 44°43' E 037°49'0 0.0
2018-Jul-05 22:00N 44°43' E 037°49'0 0.0
2018-Jul-05 21:30N 44°43' E 037°49'0 0.0
2018-Jul-05 20:58N 44°43' E 037°49'0 0.0
2018-Jul-05 20:30N 44°43' E 037°49'0 0.0
2018-Jul-05 20:01N 44°43' E 037°49'0 0.0
2018-Jul-05 19:30N 44°43' E 037°49'0 0.0
2018-Jul-05 19:00N 44°43' E 037°49'0 0.0
2018-Jul-05 18:30N 44°43' E 037°49'0 0.0
2018-Jul-05 18:00N 44°43' E 037°49'0 0.0
2018-Jul-05 17:30N 44°43' E 037°49'0 0.0
2018-Jul-05 17:00N 44°43' E 037°49'0 0.0
2018-Jul-05 16:30N 44°43' E 037°49'0 0.0
2018-Jul-05 16:00N 44°43' E 037°49'0 0.0
2018-Jul-05 15:31N 44°43' E 037°49'0 0.0
2018-Jul-05 15:01N 44°43' E 037°49'0 0.0
2018-Jul-05 14:30N 44°43' E 037°49'0 0.0
2018-Jul-05 13:30N 44°43' E 037°49'0 0.0
2018-Jul-05 13:00N 44°43' E 037°49'0 0.0
2018-Jul-05 12:31N 44°43' E 037°49'0 0.0
2018-Jul-05 12:00N 44°43' E 037°49'0 0.0
2018-Jul-05 11:30N 44°43' E 037°49'0 0.0
2018-Jul-05 11:00N 44°43' E 037°49'0 0.0
2018-Jul-05 10:30N 44°43' E 037°49'0 0.0
2018-Jul-05 10:00N 44°43' E 037°49'0 0.0
2018-Jul-05 09:30N 44°43' E 037°49'0 0.0
2018-Jul-05 09:01N 44°43' E 037°49'0 0.0
2018-Jul-05 08:30N 44°43' E 037°49'0 0.0
2018-Jul-05 07:59N 44°43' E 037°49'0 0.0
2018-Jul-05 07:30N 44°43' E 037°49'0 0.0
2018-Jul-05 07:01N 44°43' E 037°49'0 0.0
2018-Jul-05 06:31N 44°43' E 037°49'0 0.0
2018-Jul-05 06:00N 44°43' E 037°49'0 0.0
2018-Jul-05 05:30N 44°43' E 037°49'0 0.0
2018-Jul-05 04:58N 44°43' E 037°49'0 0.0
2018-Jul-05 04:31N 44°43' E 037°49'0 0.0
2018-Jul-05 03:59N 44°43' E 037°49'0 0.0
2018-Jul-05 03:30N 44°43' E 037°49'0 0.0
2018-Jul-05 03:00N 44°43' E 037°49'0 0.0
2018-Jul-05 02:30N 44°43' E 037°49'0 0.0
2018-Jul-05 02:00N 44°43' E 037°49'0 0.0
2018-Jul-05 01:30N 44°43' E 037°49'0 0.0
2018-Jul-05 01:00N 44°43' E 037°49'0 0.0
2018-Jul-05 00:30N 44°43' E 037°49'0 0.0
2018-Jul-05 00:00N 44°43' E 037°49'0 0.0
2018-Jul-04 23:30N 44°43' E 037°49'2 4.3
2018-Jul-04 23:00N 44°41' E 037°50'4 8.3
2018-Jul-04 22:30N 44°37' E 037°52'3 6.4
2018-Jul-04 22:00N 44°34' E 037°52'4 8.0
2018-Jul-04 21:30N 44°30' E 037°52'816.4
2018-Jul-04 21:00N 44°22' E 037°53'5 9.7
2018-Jul-04 20:31N 44°18' E 037°55'611.9
2018-Jul-04 20:00N 44°12' E 037°58'0 0.2
2018-Jul-04 19:31N 44°12' E 037°58'1 1.1
2018-Jul-04 19:00N 44°12' E 037°58'1 1.5
2018-Jul-04 18:30N 44°13' E 037°58'1 1.2
2018-Jul-04 18:00N 44°14' E 037°58'5 9.3
2018-Jul-04 17:30N 44°09' E 037°58'713.7
2018-Jul-04 17:00N 44°02' E 037°58'1013.8
2018-Jul-04 16:18N 43°56' E 038°08'414.2
2018-Jul-04 16:00N 43°54' E 038°13'1115.0
2018-Jul-04 15:16N 43°47' E 038°26'515.5
2018-Jul-04 14:56N 43°44' E 038°32'715.5
2018-Jul-04 14:30N 43°41' E 038°39'815.3
2018-Jul-04 14:00N 43°36' E 038°48'815.3
2018-Jul-04 13:30N 43°32' E 038°56'815.4
2018-Jul-04 13:00N 43°27' E 039°05'815.4
2018-Jul-04 12:30N 43°23' E 039°14'815.6
2018-Jul-04 12:00N 43°19' E 039°23'  

Dump ship's entire track history